Terminal Aerodrome Forecast
Issued by NWS Austin/San Antonio, TX

Home | Current Version | Previous Version | Text Only | Print | Product List | Glossary On
Versions: 1 2 3 4 5 6 7 8 9 10 11 12 13 14 15 16 17 18 19 20
000
FTUS44 KEWX 030400 AAB
TAFSAT
TAF AMD
KSAT 030401Z 0304/0406 15012KT P6SM FEW030 FEW250
     FM030700 15006KT P6SM BKN012
     FM031600 16012KT P6SM BKN040
     FM032000 16012G22KT P6SM SCT060 SCT200 PROB30 0320/0324 -TSRA
      BKN040CB
     FM040300 15010KT P6SM SCT060=

USA.gov is the U.S. government's official web portal to all federal, state and local government web resources and services.